createdAt,value
2024-04-12T00:02:10.181Z,5.28
2024-04-12T00:04:37.978Z,4.07
2024-04-12T00:07:16.613Z,4.20
2024-04-12T00:09:46.900Z,4.47
2024-04-12T00:12:14.750Z,4.10
2024-04-12T00:14:45.992Z,4.28
2024-04-12T00:17:18.327Z,4.25
2024-04-12T00:19:47.522Z,4.75
2024-04-12T00:22:16.077Z,4.00
2024-04-12T00:24:43.660Z,4.38
2024-04-12T00:27:10.992Z,3.63
2024-04-12T00:29:38.742Z,3.47
2024-04-12T00:32:19.788Z,4.20
2024-04-12T00:37:18.129Z,3.70
2024-04-12T00:39:51.453Z,3.88
2024-04-12T00:42:30.011Z,4.13
2024-04-12T00:44:59.831Z,3.38
2024-04-12T00:47:29.638Z,4.10
2024-04-12T00:49:57.746Z,3.17
2024-04-12T00:52:28.958Z,3.70
2024-04-12T00:55:04.895Z,4.25
2024-04-12T00:57:39.895Z,4.25
2024-04-12T01:00:30.028Z,3.67
2024-04-12T01:02:59.654Z,3.80
2024-04-12T01:05:26.606Z,3.65
2024-04-12T01:07:57.894Z,3.60
2024-04-12T01:10:27.105Z,3.80
2024-04-12T01:12:57.165Z,3.40
2024-04-12T01:15:25.994Z,3.60
2024-04-12T01:17:54.004Z,4.18
2024-04-12T01:20:26.512Z,4.13
2024-04-12T01:22:59.645Z,3.70
2024-04-12T01:25:27.450Z,3.55
2024-04-12T01:27:56.980Z,3.35
2024-04-12T01:30:24.082Z,3.35
2024-04-12T01:32:54.123Z,3.30
2024-04-12T01:35:25.536Z,2.90
2024-04-12T01:37:53.454Z,3.53
2024-04-12T01:40:24.166Z,3.30
2024-04-12T01:42:51.872Z,2.95
2024-04-12T01:45:18.698Z,3.17
2024-04-12T01:47:48.049Z,3.03
2024-04-12T01:50:23.948Z,2.72
2024-04-12T01:52:54.037Z,3.13
2024-04-12T01:55:22.233Z,3.28
2024-04-12T01:57:54.048Z,3.00
2024-04-12T02:00:22.309Z,2.70
2024-04-12T02:05:34.871Z,3.00
2024-04-12T02:08:09.777Z,2.70
2024-04-12T02:13:19.032Z,2.45
2024-04-12T02:15:54.293Z,3.00
2024-04-12T02:18:25.474Z,3.10
2024-04-12T02:20:54.599Z,2.70
2024-04-12T02:23:23.076Z,2.65
2024-04-12T02:25:51.289Z,2.40
2024-04-12T02:28:19.588Z,2.80
2024-04-12T02:30:55.916Z,2.15
2024-04-12T02:33:34.455Z,2.33
2024-04-12T02:36:13.801Z,2.67
2024-04-12T02:38:42.830Z,2.53
2024-04-12T02:41:17.175Z,2.42
2024-04-12T02:43:56.653Z,2.30
2024-04-12T02:46:26.493Z,2.20
2024-04-12T02:48:53.809Z,2.30
2024-04-12T02:51:24.244Z,2.75
2024-04-12T02:53:53.008Z,2.30
2024-04-12T02:56:21.731Z,2.45
2024-04-12T02:58:53.229Z,2.20
2024-04-12T03:01:24.930Z,2.25
2024-04-12T03:03:57.816Z,3.00
2024-04-12T03:06:27.450Z,2.08
2024-04-12T03:09:02.187Z,2.20
2024-04-12T03:11:37.654Z,2.58
2024-04-12T03:14:19.448Z,2.55
2024-04-12T03:16:52.840Z,2.17
2024-04-12T03:19:19.825Z,2.42
2024-04-12T03:21:52.860Z,2.30
2024-04-12T03:24:20.276Z,2.33
2024-04-12T03:26:49.256Z,2.38
2024-04-12T03:29:18.534Z,2.90
2024-04-12T03:31:48.714Z,2.28
2024-04-12T03:34:16.157Z,2.55
2024-04-12T03:36:55.052Z,2.47
2024-04-12T03:39:23.785Z,2.42
2024-04-12T03:42:01.057Z,2.60
2024-04-12T03:44:33.039Z,2.60
2024-04-12T03:47:06.098Z,2.75
2024-04-12T03:49:33.505Z,3.35
2024-04-12T03:52:00.417Z,3.83
2024-04-12T03:54:28.342Z,2.53
2024-04-12T03:56:58.620Z,3.03
2024-04-12T03:59:39.555Z,3.50
2024-04-12T04:02:10.350Z,3.17
2024-04-12T04:04:39.069Z,3.00
2024-04-12T04:07:07.355Z,3.47
2024-04-12T04:12:01.224Z,4.15
2024-04-12T04:14:29.302Z,3.30
2024-04-12T04:17:02.712Z,3.70
2024-04-12T04:19:37.228Z,3.28
2024-04-12T04:22:23.385Z,2.80
2024-04-12T04:24:54.178Z,2.90
2024-04-12T04:27:23.311Z,2.88
2024-04-12T04:29:53.858Z,3.38
2024-04-12T04:32:23.590Z,2.80
2024-04-12T04:35:06.668Z,2.97
2024-04-12T04:37:41.418Z,2.78
2024-04-12T04:40:18.855Z,2.97
2024-04-12T04:42:47.552Z,2.90
2024-04-12T04:45:23.749Z,2.72
2024-04-12T04:47:51.143Z,2.72
2024-04-12T04:50:21.209Z,2.60
2024-04-12T04:52:48.649Z,2.65
2024-04-12T04:55:15.895Z,3.28
2024-04-12T04:57:45.819Z,2.45
2024-04-12T05:00:20.750Z,2.45
2024-04-12T05:02:52.229Z,2.38
2024-04-12T05:05:28.659Z,2.40
2024-04-12T05:07:57.320Z,3.15
2024-04-12T05:12:53.476Z,2.40
2024-04-12T05:15:50.500Z,3.10
2024-04-12T05:18:17.991Z,2.88
2024-04-12T05:20:45.615Z,2.72
2024-04-12T05:23:14.189Z,2.75
2024-04-12T05:25:42.020Z,4.00
2024-04-12T05:28:09.561Z,2.78
2024-04-12T05:30:38.484Z,2.83
2024-04-12T05:33:06.133Z,2.75
2024-04-12T05:35:36.204Z,2.22
2024-04-12T05:38:08.958Z,2.63
2024-04-12T05:40:47.557Z,2.72
2024-04-12T05:43:17.778Z,3.15
2024-04-12T05:45:49.004Z,2.95
2024-04-12T05:48:16.424Z,3.45
2024-04-12T05:50:47.989Z,2.70
2024-04-12T05:53:15.479Z,3.15
2024-04-12T05:55:46.424Z,2.50
2024-04-12T05:58:17.585Z,2.90
2024-04-12T06:00:48.748Z,2.90
2024-04-12T06:03:16.742Z,3.10
2024-04-12T06:08:24.608Z,3.00
2024-04-12T06:10:52.174Z,2.85
2024-04-12T06:13:22.607Z,2.53
2024-04-12T06:15:49.801Z,2.72
2024-04-12T06:18:20.437Z,2.60
2024-04-12T06:20:49.630Z,1.83
2024-04-12T06:23:20.045Z,3.75
2024-04-12T06:25:47.384Z,1.65
2024-04-12T06:28:15.095Z,2.30
2024-04-12T06:30:48.136Z,2.30
2024-04-12T06:33:15.795Z,1.67
2024-04-12T06:35:45.793Z,2.33
2024-04-12T06:38:23.702Z,2.42
2024-04-12T06:40:54.800Z,1.95
2024-04-12T06:43:24.780Z,2.03
2024-04-12T06:45:59.291Z,2.22
2024-04-12T06:50:56.111Z,2.33
2024-04-12T06:56:00.715Z,1.70
2024-04-12T06:58:28.250Z,1.75
2024-04-12T07:00:59.050Z,1.63
2024-04-12T07:03:26.309Z,1.20
2024-04-12T07:05:56.622Z,1.65
2024-04-12T07:08:27.132Z,1.80
2024-04-12T07:10:54.767Z,1.98
2024-04-12T07:13:22.999Z,1.40
2024-04-12T07:15:50.798Z,1.67
2024-04-12T07:18:18.871Z,1.20
2024-04-12T07:20:46.676Z,1.20
2024-04-12T07:23:17.068Z,1.25
2024-04-12T07:25:46.878Z,1.40
2024-04-12T07:28:14.874Z,1.30
2024-04-12T07:30:45.752Z,1.30
2024-04-12T07:33:14.158Z,1.58
2024-04-12T07:35:45.980Z,1.85
2024-04-12T07:38:13.466Z,1.33
2024-04-12T07:40:41.759Z,1.52
2024-04-12T07:43:15.615Z,1.70
2024-04-12T07:45:45.155Z,1.60
2024-04-12T07:48:27.661Z,4.38
2024-04-12T07:51:02.034Z,1.63
2024-04-12T07:53:32.145Z,1.95
2024-04-12T07:56:09.458Z,2.40
2024-04-12T07:58:37.742Z,1.70
2024-04-12T08:01:17.992Z,2.28
2024-04-12T08:03:58.598Z,1.75
2024-04-12T08:06:39.265Z,1.92
2024-04-12T08:09:07.547Z,1.67
2024-04-12T08:11:43.254Z,1.52
2024-04-12T08:14:22.475Z,2.28
2024-04-12T08:16:54.351Z,1.45
2024-04-12T08:19:40.122Z,1.42
2024-04-12T08:22:08.866Z,1.60
2024-04-12T08:24:36.319Z,1.58
2024-04-12T08:27:04.167Z,1.40
2024-04-12T08:29:31.038Z,1.40
2024-04-12T08:32:05.842Z,1.35
2024-04-12T08:34:34.642Z,1.17
2024-04-12T08:37:04.487Z,1.27
2024-04-12T08:39:31.467Z,1.25
2024-04-12T08:42:01.440Z,1.00
2024-04-12T08:44:33.427Z,1.08
2024-04-12T08:47:31.561Z,1.30
2024-04-12T08:50:07.747Z,1.23
2024-04-12T08:52:47.723Z,1.60
2024-04-12T08:55:18.378Z,1.30
2024-04-12T08:57:49.123Z,1.50
2024-04-12T09:00:20.359Z,3.13
2024-04-12T09:02:50.585Z,1.10
2024-04-12T09:05:26.080Z,0.98
2024-04-12T09:07:53.881Z,1.60
2024-04-12T09:10:20.811Z,1.80
2024-04-12T09:12:48.530Z,2.03
2024-04-12T09:15:25.387Z,1.50
2024-04-12T09:18:03.056Z,1.58
2024-04-12T09:20:31.813Z,1.00
2024-04-12T09:23:16.101Z,1.00
2024-04-12T09:25:46.131Z,2.30
2024-04-12T09:28:18.180Z,1.95
2024-04-12T09:31:03.548Z,1.98
2024-04-12T09:33:33.259Z,1.42
2024-04-12T09:36:16.447Z,1.40
2024-04-12T09:38:43.422Z,1.30
2024-04-12T09:41:33.433Z,1.50
2024-04-12T09:44:01.391Z,1.50
2024-04-12T09:49:39.368Z,1.80
2024-04-12T09:52:25.020Z,2.10
2024-04-12T09:55:10.754Z,1.50
2024-04-12T09:58:04.404Z,1.80
2024-04-12T10:03:36.682Z,1.27
2024-04-12T10:06:22.179Z,1.50
2024-04-12T10:09:09.093Z,1.90
2024-04-12T10:11:56.161Z,1.10
2024-04-12T10:14:41.830Z,1.20
2024-04-12T10:17:32.039Z,1.10
2024-04-12T10:20:18.634Z,1.60
2024-04-12T10:23:04.702Z,1.60
2024-04-12T10:25:56.128Z,1.40
2024-04-12T10:28:41.683Z,1.30
2024-04-12T10:31:31.162Z,1.63
2024-04-12T10:34:26.580Z,1.08
2024-04-12T10:37:13.907Z,1.90
2024-04-12T10:39:47.280Z,1.15
2024-04-12T10:42:14.839Z,1.63
2024-04-12T10:44:47.999Z,1.80
2024-04-12T10:47:17.478Z,1.80
2024-04-12T10:49:44.603Z,2.60
2024-04-12T10:52:15.368Z,1.55
2024-04-12T10:54:44.919Z,1.60
2024-04-12T10:57:15.309Z,1.60
2024-04-12T10:59:43.823Z,2.40
2024-04-12T11:02:13.642Z,1.90
2024-04-12T11:05:00.823Z,2.08
2024-04-12T11:07:28.980Z,2.83
2024-04-12T11:12:46.939Z,4.50
2024-04-12T11:15:23.402Z,3.88
2024-04-12T11:18:13.436Z,3.70
2024-04-12T11:21:14.640Z,4.20
2024-04-12T11:24:01.017Z,4.07
2024-04-12T11:26:47.177Z,4.40
2024-04-12T11:29:37.664Z,4.10
2024-04-12T11:32:07.520Z,3.60
2024-04-12T11:34:41.391Z,3.47
2024-04-12T11:37:11.100Z,3.05
2024-04-12T11:39:39.649Z,2.60
2024-04-12T11:42:08.115Z,2.30
2024-04-12T11:44:35.978Z,2.20
2024-04-12T11:47:04.822Z,2.22
2024-04-12T11:49:46.954Z,3.55
2024-04-12T11:52:18.097Z,4.57
2024-04-12T11:55:00.799Z,4.88
2024-04-12T11:57:31.512Z,5.00
2024-04-12T12:00:02.214Z,3.42
2024-04-12T12:02:30.246Z,3.95
2024-04-12T12:04:58.054Z,4.65
2024-04-12T12:07:25.268Z,3.97
2024-04-12T12:09:52.106Z,3.70
2024-04-12T12:12:23.596Z,3.22
2024-04-12T12:14:54.033Z,3.75
2024-04-12T12:17:21.530Z,3.72
2024-04-12T12:19:53.070Z,3.17
2024-04-12T12:22:21.511Z,4.05
2024-04-12T12:24:49.317Z,3.28
2024-04-12T12:29:50.084Z,2.40
2024-04-12T12:32:17.049Z,2.80
2024-04-12T12:34:45.273Z,2.38
2024-04-12T12:37:13.319Z,3.17
2024-04-12T12:39:40.718Z,2.50
2024-04-12T12:42:11.158Z,3.78
2024-04-12T12:44:38.411Z,3.83
2024-04-12T12:47:07.286Z,3.35
2024-04-12T12:49:48.765Z,3.50
2024-04-12T12:52:16.195Z,3.33
2024-04-12T12:54:44.691Z,3.80
2024-04-12T12:57:13.571Z,3.25
2024-04-12T12:59:44.818Z,3.70
2024-04-12T13:02:17.004Z,2.88
2024-04-12T13:04:48.500Z,4.22
2024-04-12T13:07:18.696Z,4.70
2024-04-12T13:09:55.762Z,4.85
2024-04-12T13:12:31.197Z,5.53
2024-04-12T13:15:01.943Z,5.35
2024-04-12T13:17:29.153Z,4.93
2024-04-12T13:19:58.759Z,4.50
2024-04-12T13:22:25.755Z,4.82
2024-04-12T13:24:53.076Z,4.63
2024-04-12T13:27:25.485Z,4.20
2024-04-12T13:29:52.549Z,3.95
2024-04-12T13:32:20.769Z,4.57
2024-04-12T13:34:47.857Z,4.95
2024-04-12T13:37:22.112Z,4.80
2024-04-12T13:39:50.022Z,4.75
2024-04-12T13:42:22.116Z,4.68
2024-04-12T13:45:08.101Z,4.43
2024-04-12T13:47:54.305Z,4.13
2024-04-12T13:50:57.053Z,3.85
2024-04-12T13:53:33.919Z,3.65
2024-04-12T13:56:20.136Z,5.15
2024-04-12T13:58:54.997Z,3.97
2024-04-12T14:01:24.233Z,3.65
2024-04-12T14:04:00.016Z,4.00
2024-04-12T14:06:28.975Z,3.92
2024-04-12T14:08:57.085Z,4.18
2024-04-12T14:11:24.086Z,3.65
2024-04-12T14:13:51.775Z,3.30
2024-04-12T14:16:18.889Z,3.60
2024-04-12T14:18:49.583Z,4.15
2024-04-12T14:21:21.972Z,3.83
2024-04-12T14:23:50.893Z,3.65
2024-04-12T14:26:17.740Z,4.00
2024-04-12T14:28:44.806Z,5.82
2024-04-12T14:31:12.142Z,5.28
2024-04-12T14:33:40.448Z,5.85
2024-04-12T14:36:08.261Z,5.68
2024-04-12T14:38:41.599Z,5.75
2024-04-12T14:41:09.183Z,6.05
2024-04-12T14:43:36.400Z,5.47
2024-04-12T14:46:07.849Z,5.03
2024-04-12T14:48:37.571Z,5.95
2024-04-12T14:51:05.570Z,6.05
2024-04-12T14:55:59.817Z,4.47
2024-04-12T14:58:29.323Z,5.00
2024-04-12T15:00:56.837Z,4.82
2024-04-12T15:03:42.961Z,4.60
2024-04-12T15:06:28.311Z,3.65
2024-04-12T15:09:19.261Z,3.80
2024-04-12T15:12:04.692Z,3.03
2024-04-12T15:14:50.556Z,3.47
2024-04-12T15:17:36.663Z,3.28
2024-04-12T15:20:22.186Z,2.45
2024-04-12T15:23:07.573Z,1.77
2024-04-12T15:25:53.092Z,1.80
2024-04-12T15:28:38.662Z,2.72
2024-04-12T15:31:24.785Z,1.70
2024-04-12T15:34:10.541Z,1.40
2024-04-12T15:36:56.498Z,1.65
2024-04-12T15:39:42.269Z,1.92
2024-04-12T15:42:27.614Z,1.30
2024-04-12T15:45:13.435Z,1.60
2024-04-12T15:47:40.804Z,1.60
2024-04-12T15:50:23.072Z,1.40
2024-04-12T15:53:08.215Z,1.50
2024-04-12T15:55:55.769Z,2.15
2024-04-12T15:58:42.701Z,2.22
2024-04-12T16:01:28.463Z,1.60
2024-04-12T16:04:20.896Z,2.20
2024-04-12T16:07:07.094Z,1.70
2024-04-12T16:09:54.840Z,1.45
2024-04-12T16:12:22.228Z,1.77
2024-04-12T16:14:49.206Z,1.92
2024-04-12T16:17:16.575Z,1.90
2024-04-12T16:19:43.540Z,2.10
2024-04-12T16:22:11.460Z,1.42
2024-04-12T16:24:39.095Z,1.70
2024-04-12T16:27:06.999Z,1.80
2024-04-12T16:29:34.236Z,1.88
2024-04-12T16:32:01.174Z,1.45
2024-04-12T16:34:28.070Z,1.70
2024-04-12T16:36:54.941Z,2.10
2024-04-12T16:39:22.105Z,1.80
2024-04-12T16:41:52.237Z,1.50
2024-04-12T16:44:19.104Z,2.17
2024-04-12T16:46:46.082Z,1.63
2024-04-12T16:49:12.967Z,1.80
2024-04-12T16:51:41.119Z,1.55
2024-04-12T16:56:35.772Z,1.95
2024-04-12T16:59:06.125Z,3.78
2024-04-12T17:01:33.545Z,2.03
2024-04-12T17:04:02.028Z,1.52
2024-04-12T17:06:30.269Z,1.63
2024-04-12T17:11:27.484Z,2.08
2024-04-12T17:13:54.365Z,2.40
2024-04-12T17:16:21.947Z,2.80
2024-04-12T17:18:49.439Z,3.10
2024-04-12T17:21:16.800Z,6.75
2024-04-12T17:23:43.989Z,9.48
2024-04-12T17:26:11.847Z,6.30
2024-04-12T17:28:39.745Z,8.13
2024-04-12T17:31:10.100Z,9.02
2024-04-12T17:33:37.111Z,7.15
2024-04-12T17:36:08.067Z,7.13
2024-04-12T17:38:37.476Z,6.28
2024-04-12T17:41:04.591Z,7.03
2024-04-12T17:43:31.443Z,6.13
2024-04-12T17:45:58.645Z,4.65
2024-04-12T17:48:25.780Z,4.45
2024-04-12T17:50:54.646Z,4.03
2024-04-12T17:53:23.428Z,3.90
2024-04-12T17:55:51.015Z,3.17
2024-04-12T17:58:18.136Z,3.30
2024-04-12T18:00:48.066Z,3.28
2024-04-12T18:03:15.367Z,4.03
2024-04-12T18:05:42.537Z,3.42
2024-04-12T18:08:09.504Z,3.70
2024-04-12T18:10:36.334Z,3.70
2024-04-12T18:13:03.189Z,3.20
2024-04-12T18:15:30.039Z,2.72
2024-04-12T18:17:57.132Z,2.38
2024-04-12T18:20:26.191Z,2.22
2024-04-12T18:22:53.995Z,2.20
2024-04-12T18:25:21.248Z,2.25
2024-04-12T18:27:48.078Z,2.30
2024-04-12T18:30:15.412Z,1.90
2024-04-12T18:32:43.941Z,2.40
2024-04-12T18:35:14.089Z,2.65
2024-04-12T18:38:04.454Z,2.40
2024-04-12T18:40:51.763Z,2.55
2024-04-12T18:43:37.452Z,2.38
2024-04-12T18:46:04.564Z,2.05
2024-04-12T18:48:31.549Z,2.70
2024-04-12T18:50:58.434Z,2.55
2024-04-12T18:53:25.851Z,2.75
2024-04-12T18:55:55.367Z,2.55
2024-04-12T18:58:22.290Z,2.40
2024-04-12T19:00:50.641Z,2.10
2024-04-12T19:03:17.696Z,2.17
2024-04-12T19:05:46.555Z,2.38
2024-04-12T19:08:13.900Z,2.42
2024-04-12T19:10:42.914Z,2.10
2024-04-12T19:13:11.407Z,2.40
2024-04-12T19:15:40.174Z,2.85
2024-04-12T19:18:11.041Z,2.40
2024-04-12T19:20:44.790Z,2.20
2024-04-12T19:23:12.671Z,2.50
2024-04-12T19:25:39.593Z,2.00
2024-04-12T19:28:06.721Z,2.33
2024-04-12T19:30:38.001Z,2.40
2024-04-12T19:33:05.358Z,2.58
2024-04-12T19:35:32.409Z,2.13
2024-04-12T19:37:59.310Z,2.17
2024-04-12T19:40:26.212Z,2.60
2024-04-12T19:42:53.495Z,2.65
2024-04-12T19:45:20.513Z,2.65
2024-04-12T19:47:48.126Z,2.30
2024-04-12T19:50:15.233Z,2.47
2024-04-12T19:52:51.011Z,2.33
2024-04-12T19:55:23.303Z,2.30
2024-04-12T19:57:50.090Z,2.70
2024-04-12T20:00:17.231Z,2.70
2024-04-12T20:02:46.103Z,2.60
2024-04-12T20:05:16.244Z,2.92
2024-04-12T20:07:43.091Z,2.67
2024-04-12T20:10:10.189Z,2.45
2024-04-12T20:12:37.606Z,2.75
2024-04-12T20:15:05.557Z,2.42
2024-04-12T20:17:32.653Z,2.63
2024-04-12T20:20:04.227Z,3.08
2024-04-12T20:22:31.018Z,3.33
2024-04-12T20:24:59.718Z,3.45
2024-04-12T20:27:27.461Z,3.33
2024-04-12T20:30:08.069Z,3.05
2024-04-12T20:32:38.497Z,2.85
2024-04-12T20:35:14.629Z,3.33
2024-04-12T20:37:41.549Z,2.40
2024-04-12T20:40:09.468Z,2.90
2024-04-12T20:42:36.802Z,3.35
2024-04-12T20:45:04.587Z,2.90
2024-04-12T20:47:31.946Z,3.53
2024-04-12T20:50:02.751Z,2.50
2024-04-12T20:52:29.684Z,3.53
2024-04-12T20:54:56.938Z,3.15
2024-04-12T20:57:23.898Z,3.00
2024-04-12T20:59:53.036Z,3.10
2024-04-12T21:02:20.097Z,2.95
2024-04-12T21:04:52.546Z,2.88
2024-04-12T21:07:20.037Z,2.42
2024-04-12T21:09:47.102Z,2.75
2024-04-12T21:12:14.066Z,3.03
2024-04-12T21:14:41.754Z,2.72
2024-04-12T21:17:09.861Z,2.67
2024-04-12T21:19:36.708Z,3.05
2024-04-12T21:22:04.190Z,3.28
2024-04-12T21:24:32.656Z,2.65
2024-04-12T21:26:59.558Z,2.60
2024-04-12T21:29:27.429Z,2.55
2024-04-12T21:31:54.306Z,2.50
2024-04-12T21:34:21.254Z,3.10
2024-04-12T21:36:48.296Z,2.90
2024-04-12T21:39:15.155Z,2.75
2024-04-12T21:41:42.372Z,2.80
2024-04-12T21:44:10.030Z,2.88
2024-04-12T21:46:39.244Z,2.60
2024-04-12T21:49:06.155Z,2.95
2024-04-12T21:51:34.842Z,3.33
2024-04-12T21:54:02.080Z,3.30
2024-04-12T21:56:29.054Z,3.65
2024-04-12T21:58:56.329Z,3.80
2024-04-12T22:01:23.265Z,4.20
2024-04-12T22:03:50.661Z,4.00
2024-04-12T22:06:17.712Z,4.03
2024-04-12T22:08:44.745Z,7.75
2024-04-12T22:11:12.300Z,3.53
2024-04-12T22:13:39.574Z,4.25
2024-04-12T22:16:13.689Z,3.50
2024-04-12T22:18:42.359Z,4.43
2024-04-12T22:21:18.060Z,4.88
2024-04-12T22:23:46.762Z,4.57
2024-04-12T22:26:19.102Z,3.97
2024-04-12T22:28:46.921Z,3.72
2024-04-12T22:31:18.504Z,3.03
2024-04-12T22:33:47.163Z,2.70
2024-04-12T22:36:15.154Z,2.95
2024-04-12T22:38:42.227Z,3.13
2024-04-12T22:41:09.402Z,3.30
2024-04-12T22:43:36.542Z,3.00
2024-04-12T22:46:04.149Z,3.90
2024-04-12T22:48:31.662Z,3.53
2024-04-12T22:50:58.773Z,3.20
2024-04-12T22:53:26.493Z,3.22
2024-04-12T22:55:53.378Z,2.97
2024-04-12T22:58:20.354Z,3.28
2024-04-12T23:00:47.497Z,2.88
2024-04-12T23:03:18.260Z,2.92
2024-04-12T23:05:45.520Z,2.92
2024-04-12T23:08:12.304Z,3.17
2024-04-12T23:10:39.123Z,3.47
2024-04-12T23:13:05.881Z,2.95
2024-04-12T23:15:32.765Z,3.45
2024-04-12T23:17:59.706Z,3.03
2024-04-12T23:20:29.521Z,2.80
2024-04-12T23:22:57.366Z,3.05
2024-04-12T23:25:24.228Z,2.97
2024-04-12T23:27:53.425Z,2.80
2024-04-12T23:30:20.257Z,3.55
2024-04-12T23:32:47.210Z,2.92
2024-04-12T23:35:14.251Z,2.50
2024-04-12T23:37:41.487Z,3.05
2024-04-12T23:40:09.335Z,3.17
2024-04-12T23:42:36.490Z,3.22
2024-04-12T23:45:03.835Z,3.33
2024-04-12T23:47:31.500Z,3.53
2024-04-12T23:49:58.528Z,3.22
2024-04-12T23:52:27.539Z,3.10
2024-04-12T23:54:54.935Z,3.58
2024-04-12T23:57:21.740Z,3.42
2024-04-12T23:59:48.721Z,3.40
